createdAt,value
2022-10-06T00:00:53.062Z,4.73
2022-10-06T00:02:53.118Z,4.11
2022-10-06T00:03:53.056Z,3.83
2022-10-06T00:04:53.065Z,3.66
2022-10-06T00:05:53.085Z,3.85
2022-10-06T00:06:53.074Z,4.18
2022-10-06T00:10:53.068Z,4.13
2022-10-06T00:11:53.069Z,3.48
2022-10-06T00:12:53.085Z,3.90
2022-10-06T00:13:53.109Z,3.64
2022-10-06T00:14:53.074Z,3.86
2022-10-06T00:15:53.137Z,4.44
2022-10-06T00:16:53.087Z,4.37
2022-10-06T00:17:53.092Z,4.11
2022-10-06T00:18:53.088Z,3.72
2022-10-06T00:19:53.080Z,3.76
2022-10-06T00:20:53.084Z,3.66
2022-10-06T00:21:53.101Z,3.89
2022-10-06T00:22:56.796Z,3.86
2022-10-06T00:24:53.119Z,3.84
2022-10-06T00:25:53.090Z,4.18
2022-10-06T00:27:53.119Z,3.79
2022-10-06T00:31:53.126Z,3.84
2022-10-06T00:32:53.121Z,3.85
2022-10-06T00:33:53.129Z,3.72
2022-10-06T00:34:53.116Z,3.84
2022-10-06T00:35:53.133Z,4.26
2022-10-06T00:36:53.143Z,4.15
2022-10-06T00:38:53.136Z,3.70
2022-10-06T00:39:53.166Z,3.92
2022-10-06T00:41:53.172Z,3.83
2022-10-06T00:42:53.159Z,4.31
2022-10-06T00:43:53.149Z,3.59
2022-10-06T00:44:53.162Z,4.29
2022-10-06T00:45:53.222Z,4.00
2022-10-06T00:46:53.156Z,3.84
2022-10-06T00:47:53.182Z,3.70
2022-10-06T00:48:53.180Z,4.05
2022-10-06T00:49:53.174Z,4.05
2022-10-06T00:50:53.165Z,3.54
2022-10-06T00:51:53.192Z,3.59
2022-10-06T00:52:53.188Z,3.64
2022-10-06T00:53:53.192Z,4.34
2022-10-06T00:54:53.192Z,3.87
2022-10-06T00:55:53.179Z,3.74
2022-10-06T00:56:53.179Z,3.40
2022-10-06T00:57:53.311Z,3.73
2022-10-06T00:59:57.029Z,4.05
2022-10-06T01:01:53.267Z,3.41
2022-10-06T01:02:53.222Z,3.63
2022-10-06T01:03:53.220Z,3.62
2022-10-06T01:04:53.200Z,4.07
2022-10-06T01:05:53.225Z,3.87
2022-10-06T01:06:53.213Z,3.54
2022-10-06T01:08:53.236Z,3.91
2022-10-06T01:09:53.240Z,3.78
2022-10-06T01:10:53.228Z,4.02
2022-10-06T01:11:53.203Z,3.91
2022-10-06T01:12:53.232Z,3.76
2022-10-06T01:13:53.229Z,3.85
2022-10-06T01:14:53.242Z,4.24
2022-10-06T01:15:53.291Z,3.92
2022-10-06T01:17:53.248Z,3.36
2022-10-06T01:18:53.242Z,3.84
2022-10-06T01:20:53.240Z,3.72
2022-10-06T01:22:53.246Z,3.72
2022-10-06T01:23:53.258Z,3.65
2022-10-06T01:24:53.262Z,3.72
2022-10-06T01:25:53.242Z,3.27
2022-10-06T01:27:53.260Z,3.86
2022-10-06T01:28:53.272Z,3.93
2022-10-06T01:29:53.259Z,3.47
2022-10-06T01:30:53.345Z,3.75
2022-10-06T01:31:53.258Z,3.51
2022-10-06T01:33:53.305Z,3.40
2022-10-06T01:34:53.277Z,3.66
2022-10-06T01:35:53.281Z,4.43
2022-10-06T01:37:53.292Z,3.11
2022-10-06T01:39:53.297Z,4.20
2022-10-06T01:40:53.305Z,3.96
2022-10-06T01:44:53.314Z,3.75
2022-10-06T01:47:53.399Z,3.58
2022-10-06T01:48:53.310Z,3.98
2022-10-06T01:49:53.323Z,3.90
2022-10-06T01:50:53.322Z,4.01
2022-10-06T01:52:53.333Z,4.03
2022-10-06T01:53:53.346Z,3.74
2022-10-06T01:54:53.328Z,4.00
2022-10-06T01:55:53.340Z,3.91
2022-10-06T01:56:53.357Z,4.51
2022-10-06T01:57:53.324Z,3.65
2022-10-06T01:58:53.374Z,4.20
2022-10-06T01:59:54.937Z,4.29
2022-10-06T02:00:53.361Z,3.51
2022-10-06T02:01:53.406Z,3.65
2022-10-06T02:02:53.336Z,3.57
2022-10-06T02:03:53.350Z,3.84
2022-10-06T02:04:53.360Z,3.66
2022-10-06T02:05:53.355Z,3.68
2022-10-06T02:06:53.368Z,3.56
2022-10-06T02:07:53.372Z,3.90
2022-10-06T02:09:53.373Z,3.93
2022-10-06T02:10:53.398Z,3.66
2022-10-06T02:11:53.422Z,4.09
2022-10-06T02:12:53.366Z,3.22
2022-10-06T02:13:57.722Z,3.57
2022-10-06T02:14:53.362Z,4.03
2022-10-06T02:15:53.415Z,3.80
2022-10-06T02:16:53.372Z,3.77
2022-10-06T02:17:53.388Z,3.75
2022-10-06T02:18:53.398Z,4.19
2022-10-06T02:19:53.393Z,3.93
2022-10-06T02:21:53.401Z,4.04
2022-10-06T02:22:53.392Z,4.20
2022-10-06T02:23:53.418Z,3.86
2022-10-06T02:24:53.427Z,3.58
2022-10-06T02:25:53.423Z,4.14
2022-10-06T02:26:53.428Z,3.77
2022-10-06T02:27:53.418Z,3.78
2022-10-06T02:28:53.433Z,4.03
2022-10-06T02:29:53.436Z,3.95
2022-10-06T02:30:53.470Z,4.06
2022-10-06T02:31:53.428Z,3.89
2022-10-06T02:32:53.435Z,3.65
2022-10-06T02:33:53.438Z,3.77
2022-10-06T02:35:53.431Z,3.92
2022-10-06T02:36:53.450Z,3.99
2022-10-06T02:37:53.453Z,3.94
2022-10-06T02:38:53.443Z,4.15
2022-10-06T02:39:53.451Z,4.21
2022-10-06T02:40:53.455Z,3.44
2022-10-06T02:41:53.456Z,4.08
2022-10-06T02:42:53.462Z,4.37
2022-10-06T02:43:53.456Z,4.01
2022-10-06T02:44:53.452Z,4.03
2022-10-06T02:45:53.463Z,4.62
2022-10-06T02:46:53.506Z,3.67
2022-10-06T02:47:53.464Z,4.13
2022-10-06T02:48:53.487Z,4.18
2022-10-06T02:49:53.472Z,3.64
2022-10-06T02:50:57.965Z,3.84
2022-10-06T02:51:53.486Z,3.98
2022-10-06T02:52:53.486Z,3.93
2022-10-06T02:54:53.500Z,3.75
2022-10-06T02:55:53.493Z,4.16
2022-10-06T02:56:53.503Z,4.57
2022-10-06T02:58:53.484Z,3.80
2022-10-06T03:00:53.495Z,4.21
2022-10-06T03:01:53.599Z,3.68
2022-10-06T03:02:53.556Z,4.37
2022-10-06T03:03:53.527Z,4.20
2022-10-06T03:04:53.516Z,3.99
2022-10-06T03:05:53.504Z,4.22
2022-10-06T03:06:53.526Z,4.31
2022-10-06T03:07:53.508Z,4.42
2022-10-06T03:08:53.518Z,3.58
2022-10-06T03:09:53.531Z,4.33
2022-10-06T03:10:53.555Z,4.52
2022-10-06T03:12:53.524Z,3.57
2022-10-06T03:18:53.544Z,3.68
2022-10-06T03:20:53.574Z,3.94
2022-10-06T03:21:53.542Z,4.05
2022-10-06T03:22:53.565Z,3.81
2022-10-06T03:23:53.573Z,3.98
2022-10-06T03:24:53.567Z,3.97
2022-10-06T03:25:53.563Z,4.24
2022-10-06T03:26:53.553Z,3.80
2022-10-06T03:27:58.262Z,4.43
2022-10-06T03:28:53.565Z,4.35
2022-10-06T03:29:53.560Z,4.85
2022-10-06T03:30:53.570Z,4.20
2022-10-06T03:31:53.581Z,3.97
2022-10-06T03:32:53.567Z,4.45
2022-10-06T03:34:53.596Z,4.54
2022-10-06T03:35:53.565Z,4.45
2022-10-06T03:37:53.621Z,4.96
2022-10-06T03:40:53.582Z,4.48
2022-10-06T03:41:53.607Z,4.33
2022-10-06T03:42:53.601Z,4.48
2022-10-06T03:44:53.769Z,4.87
2022-10-06T03:45:53.617Z,4.55
2022-10-06T03:47:53.621Z,4.90
2022-10-06T03:48:53.627Z,4.67
2022-10-06T03:49:53.626Z,4.50
2022-10-06T03:50:53.627Z,4.52
2022-10-06T03:51:53.704Z,5.28
2022-10-06T03:53:53.629Z,4.72
2022-10-06T03:55:53.639Z,4.51
2022-10-06T03:56:53.718Z,4.37
2022-10-06T03:57:53.651Z,4.40
2022-10-06T04:00:53.703Z,5.08
2022-10-06T04:01:53.789Z,6.28
2022-10-06T04:02:53.636Z,5.19
2022-10-06T04:03:53.652Z,5.97
2022-10-06T04:04:58.533Z,5.60
2022-10-06T04:06:53.671Z,5.55
2022-10-06T04:07:53.684Z,6.25
2022-10-06T04:08:53.704Z,5.56
2022-10-06T04:09:53.650Z,4.66
2022-10-06T04:10:53.723Z,4.95
2022-10-06T04:11:53.684Z,5.42
2022-10-06T04:13:53.693Z,4.65
2022-10-06T04:15:53.697Z,4.47
2022-10-06T04:16:53.691Z,4.48
2022-10-06T04:17:53.697Z,4.36
2022-10-06T04:19:53.728Z,4.41
2022-10-06T04:22:53.758Z,4.48
2022-10-06T04:23:53.729Z,5.23
2022-10-06T04:24:53.730Z,5.36
2022-10-06T04:25:55.994Z,5.49
2022-10-06T04:26:53.726Z,5.59
2022-10-06T04:27:53.708Z,4.75
2022-10-06T04:29:53.764Z,5.17
2022-10-06T04:30:53.764Z,5.58
2022-10-06T04:31:53.796Z,5.18
2022-10-06T04:33:53.770Z,5.16
2022-10-06T04:34:53.732Z,5.16
2022-10-06T04:35:53.759Z,5.08
2022-10-06T04:36:53.768Z,5.34
2022-10-06T04:37:53.760Z,4.92
2022-10-06T04:38:53.874Z,4.95
2022-10-06T04:39:53.755Z,4.78
2022-10-06T04:40:53.755Z,5.05
2022-10-06T04:41:58.806Z,5.75
2022-10-06T04:42:53.770Z,5.29
2022-10-06T04:43:53.772Z,5.62
2022-10-06T04:44:53.780Z,5.39
2022-10-06T04:45:53.796Z,6.14
2022-10-06T04:46:53.871Z,4.82
2022-10-06T04:47:53.795Z,5.01
2022-10-06T04:48:53.763Z,5.49
2022-10-06T04:49:53.786Z,5.30
2022-10-06T04:50:53.789Z,4.29
2022-10-06T04:51:53.771Z,4.94
2022-10-06T04:52:53.781Z,4.59
2022-10-06T04:53:53.815Z,5.25
2022-10-06T04:54:53.795Z,5.03
2022-10-06T04:57:53.790Z,5.50
2022-10-06T04:58:53.810Z,5.27
2022-10-06T04:59:53.840Z,5.45
2022-10-06T05:01:53.845Z,5.39
2022-10-06T05:02:53.811Z,4.93
2022-10-06T05:03:53.833Z,4.87
2022-10-06T05:04:53.811Z,5.13
2022-10-06T05:05:53.853Z,5.48
2022-10-06T05:06:53.814Z,5.03
2022-10-06T05:08:53.845Z,5.28
2022-10-06T05:10:53.897Z,4.86
2022-10-06T05:11:53.864Z,6.19
2022-10-06T05:12:53.860Z,5.86
2022-10-06T05:13:53.852Z,5.29
2022-10-06T05:14:53.835Z,4.98
2022-10-06T05:15:54.267Z,5.15
2022-10-06T05:17:53.854Z,4.88
2022-10-06T05:18:53.852Z,6.30
2022-10-06T05:20:53.856Z,6.73
2022-10-06T05:21:53.882Z,6.95
2022-10-06T05:22:53.869Z,5.87
2022-10-06T05:23:53.864Z,6.49
2022-10-06T05:24:53.885Z,6.32
2022-10-06T05:25:53.883Z,6.04
2022-10-06T05:26:57.245Z,5.96
2022-10-06T05:27:53.868Z,6.07
2022-10-06T05:28:53.884Z,6.43
2022-10-06T05:29:53.895Z,6.30
2022-10-06T05:30:53.893Z,5.94
2022-10-06T05:32:53.917Z,5.83
2022-10-06T05:34:53.922Z,5.91
2022-10-06T05:35:53.907Z,6.18
2022-10-06T05:36:53.911Z,6.29
2022-10-06T05:37:53.917Z,6.84
2022-10-06T05:38:54.736Z,5.57
2022-10-06T05:41:53.934Z,7.38
2022-10-06T05:42:53.944Z,5.97
2022-10-06T05:43:53.927Z,5.99
2022-10-06T05:45:54.047Z,5.74
2022-10-06T05:46:53.945Z,5.88
2022-10-06T05:47:53.921Z,5.75
2022-10-06T05:48:53.914Z,5.52
2022-10-06T05:49:53.944Z,6.95
2022-10-06T05:50:53.942Z,6.99
2022-10-06T05:51:53.970Z,6.26
2022-10-06T05:52:54.550Z,6.64
2022-10-06T05:53:53.934Z,6.53
2022-10-06T05:54:53.940Z,5.71
2022-10-06T05:55:53.973Z,5.84
2022-10-06T05:56:53.947Z,6.16
2022-10-06T05:57:53.981Z,6.20
2022-10-06T05:58:53.969Z,6.39
2022-10-06T05:59:53.961Z,6.05
2022-10-06T06:00:53.971Z,6.42
2022-10-06T06:01:54.056Z,5.78
2022-10-06T06:02:54.062Z,6.06
2022-10-06T06:03:53.988Z,6.02
2022-10-06T06:04:53.977Z,6.36
2022-10-06T06:05:53.979Z,6.04
2022-10-06T06:06:53.991Z,5.86
2022-10-06T06:07:53.984Z,5.75
2022-10-06T06:09:54.035Z,6.74
2022-10-06T06:11:54.003Z,5.74
2022-10-06T06:13:54.005Z,7.39
2022-10-06T06:14:54.000Z,6.51
2022-10-06T06:15:54.029Z,6.67
2022-10-06T06:16:54.076Z,6.16
2022-10-06T06:17:54.008Z,6.02
2022-10-06T06:18:54.000Z,6.04
2022-10-06T06:19:54.029Z,6.36
2022-10-06T06:20:54.021Z,6.12
2022-10-06T06:21:54.046Z,6.52
2022-10-06T06:22:54.017Z,6.73
2022-10-06T06:23:54.026Z,6.46
2022-10-06T06:24:54.013Z,6.93
2022-10-06T06:25:54.770Z,6.87
2022-10-06T06:26:54.026Z,7.34
2022-10-06T06:27:54.053Z,6.69
2022-10-06T06:28:54.182Z,6.51
2022-10-06T06:29:54.870Z,6.31
2022-10-06T06:30:54.091Z,6.19
2022-10-06T06:31:54.095Z,5.85
2022-10-06T06:32:54.086Z,5.59
2022-10-06T06:33:54.072Z,5.87
2022-10-06T06:34:54.056Z,5.49
2022-10-06T06:35:54.054Z,6.02
2022-10-06T06:36:54.064Z,6.09
2022-10-06T06:37:54.057Z,6.14
2022-10-06T06:38:54.060Z,5.64
2022-10-06T06:39:54.104Z,6.43
2022-10-06T06:40:54.067Z,6.04
2022-10-06T06:41:54.050Z,6.31
2022-10-06T06:42:54.106Z,6.13
2022-10-06T06:43:54.113Z,5.51
2022-10-06T06:44:54.063Z,5.86
2022-10-06T06:45:54.105Z,5.10
2022-10-06T06:46:54.086Z,5.99
2022-10-06T06:47:54.086Z,5.29
2022-10-06T06:48:54.092Z,5.29
2022-10-06T06:49:54.088Z,5.41
2022-10-06T06:50:54.097Z,5.40
2022-10-06T06:51:54.148Z,5.04
2022-10-06T06:52:54.085Z,5.17
2022-10-06T06:53:54.096Z,5.42
2022-10-06T06:54:54.117Z,4.85
2022-10-06T06:55:54.109Z,5.04
2022-10-06T06:56:54.118Z,5.30
2022-10-06T06:57:54.126Z,5.23
2022-10-06T06:58:54.114Z,5.56
2022-10-06T06:59:54.133Z,5.43
2022-10-06T07:00:54.159Z,5.17
2022-10-06T07:01:54.168Z,5.62
2022-10-06T07:02:54.191Z,5.47
2022-10-06T07:03:58.050Z,5.57
2022-10-06T07:04:54.157Z,5.31
2022-10-06T07:05:54.168Z,5.14
2022-10-06T07:06:55.210Z,5.72
2022-10-06T07:07:54.130Z,5.33
2022-10-06T07:08:54.183Z,5.29
2022-10-06T07:09:54.175Z,5.67
2022-10-06T07:10:54.165Z,5.01
2022-10-06T07:11:54.135Z,5.80
2022-10-06T07:12:54.173Z,5.41
2022-10-06T07:13:54.152Z,5.42
2022-10-06T07:14:54.200Z,5.19
2022-10-06T07:15:54.184Z,4.91
2022-10-06T07:16:54.166Z,5.09
2022-10-06T07:17:54.142Z,5.02
2022-10-06T07:18:54.189Z,5.84
2022-10-06T07:19:54.194Z,5.62
2022-10-06T07:20:54.194Z,5.78
2022-10-06T07:21:54.164Z,5.56
2022-10-06T07:22:54.163Z,5.58
2022-10-06T07:23:54.170Z,5.65
2022-10-06T07:24:54.170Z,5.22
2022-10-06T07:25:54.179Z,5.59
2022-10-06T07:26:54.189Z,6.61
2022-10-06T07:27:54.173Z,6.34
2022-10-06T07:28:54.208Z,6.58
2022-10-06T07:29:54.666Z,5.88
2022-10-06T07:30:54.340Z,5.83
2022-10-06T07:31:54.206Z,5.63
2022-10-06T07:32:54.187Z,5.95
2022-10-06T07:33:54.198Z,4.87
2022-10-06T07:34:54.518Z,5.59
2022-10-06T07:35:54.210Z,5.26
2022-10-06T07:36:54.209Z,5.49
2022-10-06T07:37:54.231Z,5.44
2022-10-06T07:38:54.215Z,6.36
2022-10-06T07:39:54.226Z,6.73
2022-10-06T07:41:18.357Z,5.75
2022-10-06T07:41:54.230Z,5.88
2022-10-06T07:42:54.229Z,5.55
2022-10-06T07:43:55.652Z,6.19
2022-10-06T07:44:54.809Z,5.81
2022-10-06T07:45:54.292Z,5.61
2022-10-06T07:47:00.374Z,5.71
2022-10-06T07:47:54.241Z,5.33
2022-10-06T07:48:54.241Z,5.22
2022-10-06T07:49:55.699Z,5.72
2022-10-06T07:50:54.245Z,5.11
2022-10-06T07:51:54.239Z,6.33
2022-10-06T07:52:56.782Z,5.94
2022-10-06T07:53:54.365Z,6.20
2022-10-06T07:54:54.806Z,5.84
2022-10-06T07:55:55.344Z,5.74
2022-10-06T07:56:54.272Z,4.88
2022-10-06T07:57:54.258Z,5.44
2022-10-06T07:58:55.736Z,5.04
2022-10-06T07:59:55.595Z,5.48
2022-10-06T08:00:54.277Z,5.62
2022-10-06T08:01:54.378Z,5.04
2022-10-06T08:02:54.322Z,5.48
2022-10-06T08:03:54.273Z,5.42
2022-10-06T08:04:54.774Z,5.35
2022-10-06T08:05:54.290Z,6.38
2022-10-06T08:06:54.296Z,5.90
2022-10-06T08:07:54.290Z,5.69
2022-10-06T08:08:54.329Z,6.09
2022-10-06T08:09:54.317Z,6.38
2022-10-06T08:10:54.351Z,5.93
2022-10-06T08:11:54.308Z,5.37
2022-10-06T08:12:54.287Z,5.93
2022-10-06T08:13:54.339Z,6.10
2022-10-06T08:14:54.646Z,5.56
2022-10-06T08:15:54.402Z,5.38
2022-10-06T08:16:54.355Z,5.23
2022-10-06T08:17:54.301Z,6.05
2022-10-06T08:18:54.346Z,5.60
2022-10-06T08:19:54.323Z,6.05
2022-10-06T08:20:55.663Z,5.26
2022-10-06T08:21:54.341Z,5.83
2022-10-06T08:22:54.371Z,5.74
2022-10-06T08:23:54.313Z,4.69
2022-10-06T08:25:04.768Z,4.90
2022-10-06T08:25:54.331Z,5.18
2022-10-06T08:26:54.330Z,4.72
2022-10-06T08:27:54.350Z,5.01
2022-10-06T08:28:54.414Z,5.53
2022-10-06T08:29:54.354Z,5.18
2022-10-06T08:30:54.347Z,5.20
2022-10-06T08:31:54.536Z,5.10
2022-10-06T08:32:54.374Z,4.68
2022-10-06T08:33:54.365Z,4.12
2022-10-06T08:34:54.792Z,4.44
2022-10-06T08:35:54.359Z,4.14
2022-10-06T08:37:18.626Z,4.48
2022-10-06T08:37:54.372Z,4.73
2022-10-06T08:38:54.358Z,4.92
2022-10-06T08:39:54.367Z,5.17
2022-10-06T08:40:54.406Z,4.62
2022-10-06T08:41:54.391Z,4.63
2022-10-06T08:42:54.400Z,4.36
2022-10-06T08:43:54.394Z,4.62
2022-10-06T08:44:54.615Z,4.33
2022-10-06T08:46:54.417Z,4.83
2022-10-06T08:47:54.409Z,4.87
2022-10-06T08:48:54.400Z,4.73
2022-10-06T08:49:54.566Z,4.80
2022-10-06T08:50:54.425Z,4.76
2022-10-06T08:51:54.425Z,4.67
2022-10-06T08:52:54.454Z,5.22
2022-10-06T08:53:54.476Z,5.18
2022-10-06T08:54:54.410Z,5.28
2022-10-06T08:55:54.408Z,6.15
2022-10-06T08:56:54.439Z,5.17
2022-10-06T08:57:55.960Z,5.35
2022-10-06T08:58:54.433Z,5.38
2022-10-06T08:59:54.643Z,5.72
2022-10-06T09:00:54.499Z,5.15
2022-10-06T09:01:54.653Z,5.25
2022-10-06T09:02:54.428Z,5.07
2022-10-06T09:03:54.474Z,5.01
2022-10-06T09:04:54.447Z,5.89
2022-10-06T09:05:54.454Z,6.51
2022-10-06T09:06:54.427Z,5.63
2022-10-06T09:07:54.453Z,5.55
2022-10-06T09:08:54.461Z,6.18
2022-10-06T09:09:54.816Z,5.78
2022-10-06T09:10:54.446Z,5.28
2022-10-06T09:11:54.464Z,6.08
2022-10-06T09:12:54.463Z,5.61
2022-10-06T09:13:54.468Z,5.46
2022-10-06T09:14:54.471Z,5.51
2022-10-06T09:15:54.565Z,6.04
2022-10-06T09:16:54.496Z,5.52
2022-10-06T09:17:54.492Z,5.41
2022-10-06T09:19:08.185Z,5.35
2022-10-06T09:19:54.719Z,5.75
2022-10-06T09:20:54.481Z,5.33
2022-10-06T09:21:54.507Z,5.16
2022-10-06T09:22:54.500Z,5.30
2022-10-06T09:23:54.531Z,5.69
2022-10-06T09:24:54.493Z,5.74
2022-10-06T09:25:54.481Z,5.61
2022-10-06T09:26:54.511Z,5.09
2022-10-06T09:27:54.541Z,4.87
2022-10-06T09:28:54.525Z,5.24
2022-10-06T09:29:54.910Z,5.52
2022-10-06T09:30:55.504Z,4.84
2022-10-06T09:31:54.523Z,5.31
2022-10-06T09:32:54.528Z,4.32
2022-10-06T09:33:54.546Z,4.33
2022-10-06T09:34:56.196Z,4.94
2022-10-06T09:35:54.532Z,4.95
2022-10-06T09:36:57.742Z,4.64
2022-10-06T09:37:54.523Z,4.75
2022-10-06T09:38:54.526Z,5.58
2022-10-06T09:39:54.932Z,5.52
2022-10-06T09:40:54.561Z,5.19
2022-10-06T09:41:54.554Z,5.36
2022-10-06T09:42:54.547Z,5.03
2022-10-06T09:43:54.559Z,6.07
2022-10-06T09:44:54.557Z,5.47
2022-10-06T09:45:54.579Z,5.06
2022-10-06T09:46:54.569Z,5.57
2022-10-06T09:47:54.578Z,4.71
2022-10-06T09:48:54.563Z,4.99
2022-10-06T09:49:54.908Z,4.95
2022-10-06T09:50:54.584Z,4.73
2022-10-06T09:51:54.660Z,4.83
2022-10-06T09:52:54.593Z,4.31
2022-10-06T09:53:54.579Z,4.41
2022-10-06T09:54:54.572Z,4.31
2022-10-06T09:55:54.604Z,4.45
2022-10-06T09:56:54.579Z,4.41
2022-10-06T09:57:54.639Z,4.79
2022-10-06T09:58:54.594Z,4.12
2022-10-06T09:59:54.855Z,4.97
2022-10-06T10:00:54.657Z,5.23
2022-10-06T10:01:54.595Z,5.27
2022-10-06T10:02:54.665Z,4.94
2022-10-06T10:04:18.639Z,4.79
2022-10-06T10:04:54.617Z,5.10
2022-10-06T10:05:54.623Z,5.28
2022-10-06T10:06:54.646Z,4.86
2022-10-06T10:07:54.599Z,4.69
2022-10-06T10:08:54.623Z,5.04
2022-10-06T10:09:54.984Z,5.10
2022-10-06T10:10:54.617Z,6.39
2022-10-06T10:11:56.533Z,5.72
2022-10-06T10:12:54.619Z,6.56
2022-10-06T10:13:54.668Z,6.02
2022-10-06T10:14:54.628Z,6.04
2022-10-06T10:15:54.792Z,5.94
2022-10-06T10:16:54.632Z,6.53
2022-10-06T10:18:54.635Z,5.91
2022-10-06T10:19:54.860Z,6.56
2022-10-06T10:20:54.661Z,6.54
2022-10-06T10:21:54.693Z,5.75
2022-10-06T10:22:54.664Z,5.71
2022-10-06T10:23:54.670Z,5.27
2022-10-06T10:25:54.654Z,6.21
2022-10-06T10:26:54.679Z,5.39
2022-10-06T10:27:54.708Z,6.64
2022-10-06T10:28:54.679Z,5.79
2022-10-06T10:30:54.733Z,6.95
2022-10-06T10:31:54.789Z,6.27
2022-10-06T10:32:54.672Z,6.78
2022-10-06T10:34:05.370Z,6.50
2022-10-06T10:34:55.031Z,5.93
2022-10-06T10:35:54.694Z,6.26
2022-10-06T10:36:54.680Z,6.47
2022-10-06T10:37:54.679Z,5.89
2022-10-06T10:38:54.697Z,5.97
2022-10-06T10:39:54.738Z,5.68
2022-10-06T10:40:54.703Z,5.43
2022-10-06T10:41:54.718Z,5.39
2022-10-06T10:42:54.706Z,4.93
2022-10-06T10:43:54.698Z,5.83
2022-10-06T10:44:54.945Z,6.00
2022-10-06T10:45:54.736Z,6.30
2022-10-06T10:46:54.797Z,6.58
2022-10-06T10:47:54.733Z,5.96
2022-10-06T10:48:56.835Z,5.31
2022-10-06T10:49:54.726Z,6.71
2022-10-06T10:50:54.716Z,5.96
2022-10-06T10:51:55.101Z,6.06
2022-10-06T10:52:54.749Z,6.23
2022-10-06T10:53:54.744Z,5.69
2022-10-06T10:54:55.029Z,4.84
2022-10-06T10:55:54.725Z,5.10
2022-10-06T10:56:54.733Z,5.21
2022-10-06T10:57:54.786Z,5.13
2022-10-06T10:58:54.761Z,4.79
2022-10-06T10:59:54.741Z,5.13
2022-10-06T11:00:54.811Z,5.11
2022-10-06T11:01:54.803Z,5.15
2022-10-06T11:02:54.749Z,4.87
2022-10-06T11:05:54.791Z,5.66
2022-10-06T11:06:54.782Z,5.16
2022-10-06T11:07:54.774Z,4.99
2022-10-06T11:08:54.781Z,5.85
2022-10-06T11:09:54.783Z,5.30
2022-10-06T11:10:54.804Z,5.95
2022-10-06T11:11:54.832Z,5.72
2022-10-06T11:13:54.806Z,4.96
2022-10-06T11:14:54.865Z,5.45
2022-10-06T11:15:54.881Z,4.78
2022-10-06T11:16:54.788Z,5.25
2022-10-06T11:17:54.847Z,4.88
2022-10-06T11:19:54.817Z,5.22
2022-10-06T11:20:54.807Z,5.25
2022-10-06T11:21:54.793Z,4.93
2022-10-06T11:22:54.824Z,5.27
2022-10-06T11:23:54.864Z,5.03
2022-10-06T11:24:54.891Z,4.97
2022-10-06T11:25:57.107Z,5.16
2022-10-06T11:27:54.825Z,5.12
2022-10-06T11:29:54.902Z,5.23
2022-10-06T11:30:54.854Z,5.34
2022-10-06T11:31:54.895Z,5.39
2022-10-06T11:32:54.832Z,4.72
2022-10-06T11:33:54.852Z,4.83
2022-10-06T11:34:54.834Z,4.98
2022-10-06T11:35:54.873Z,5.74
2022-10-06T11:36:54.846Z,4.89
2022-10-06T11:37:54.847Z,4.14
2022-10-06T11:38:54.860Z,4.92
2022-10-06T11:39:54.846Z,4.86
2022-10-06T11:40:54.873Z,5.04
2022-10-06T11:41:55.157Z,4.77
2022-10-06T11:42:54.854Z,4.60
2022-10-06T11:43:54.872Z,4.63
2022-10-06T11:44:54.868Z,4.55
2022-10-06T11:45:55.003Z,4.82
2022-10-06T11:46:54.895Z,4.72
2022-10-06T11:47:54.919Z,5.09
2022-10-06T11:48:54.897Z,5.26
2022-10-06T11:49:54.888Z,5.65
2022-10-06T11:50:54.889Z,4.84
2022-10-06T11:51:59.094Z,5.29
2022-10-06T11:52:54.904Z,5.03
2022-10-06T11:53:54.929Z,5.07
2022-10-06T11:55:54.906Z,5.22
2022-10-06T11:56:54.916Z,4.81
2022-10-06T11:57:54.918Z,4.69
2022-10-06T11:58:54.906Z,4.27
2022-10-06T11:59:54.954Z,4.53
2022-10-06T12:00:54.906Z,4.49
2022-10-06T12:01:55.097Z,4.44
2022-10-06T12:02:57.592Z,4.96
2022-10-06T12:03:54.934Z,4.42
2022-10-06T12:04:54.941Z,4.53
2022-10-06T12:05:56.611Z,4.59
2022-10-06T12:06:54.919Z,4.69
2022-10-06T12:07:54.935Z,4.52
2022-10-06T12:08:54.942Z,5.02
2022-10-06T12:09:54.938Z,4.16
2022-10-06T12:10:54.926Z,4.58
2022-10-06T12:11:55.068Z,4.31
2022-10-06T12:13:06.559Z,4.73
2022-10-06T12:15:06.434Z,4.16
2022-10-06T12:17:08.588Z,4.57
2022-10-06T12:17:54.991Z,5.17
2022-10-06T12:18:55.163Z,5.23
2022-10-06T12:19:54.973Z,4.86
2022-10-06T12:20:54.990Z,4.52
2022-10-06T12:21:54.974Z,5.19
2022-10-06T12:22:54.971Z,4.82
2022-10-06T12:23:55.019Z,4.87
2022-10-06T12:24:54.996Z,4.47
2022-10-06T12:25:54.988Z,4.42
2022-10-06T12:26:54.992Z,3.64
2022-10-06T12:27:54.977Z,4.61
2022-10-06T12:28:54.986Z,4.68
2022-10-06T12:29:55.090Z,4.11
2022-10-06T12:30:55.020Z,3.69
2022-10-06T12:32:55.007Z,5.37
2022-10-06T12:36:55.066Z,5.01
2022-10-06T12:37:55.135Z,5.68
2022-10-06T12:38:55.006Z,5.23
2022-10-06T12:39:57.632Z,4.41
2022-10-06T12:41:55.025Z,4.62
2022-10-06T12:42:55.048Z,5.03
2022-10-06T12:43:55.029Z,4.92
2022-10-06T12:44:55.066Z,4.75
2022-10-06T12:45:55.128Z,4.81
2022-10-06T12:46:55.064Z,5.09
2022-10-06T12:47:55.031Z,4.59
2022-10-06T12:48:55.086Z,4.77
2022-10-06T12:49:55.031Z,4.88
2022-10-06T12:50:55.057Z,4.97
2022-10-06T12:51:57.892Z,4.11
2022-10-06T12:52:55.058Z,4.60
2022-10-06T12:53:55.055Z,4.32
2022-10-06T12:54:55.745Z,4.83
2022-10-06T12:55:55.066Z,5.08
2022-10-06T12:56:55.036Z,4.81
2022-10-06T12:57:55.087Z,4.52
2022-10-06T12:58:55.071Z,4.87
2022-10-06T12:59:55.065Z,4.93
2022-10-06T13:00:55.105Z,4.31
2022-10-06T13:01:55.086Z,3.66
2022-10-06T13:02:55.063Z,5.68
2022-10-06T13:03:55.075Z,4.38
2022-10-06T13:04:55.200Z,4.54
2022-10-06T13:07:55.141Z,5.15
2022-10-06T13:08:55.110Z,4.75
2022-10-06T13:09:56.184Z,5.77
2022-10-06T13:10:55.111Z,5.16
2022-10-06T13:11:55.100Z,4.74
2022-10-06T13:12:55.114Z,5.11
2022-10-06T13:13:55.158Z,5.19
2022-10-06T13:14:55.192Z,4.56
2022-10-06T13:15:55.100Z,4.01
2022-10-06T13:17:02.434Z,4.16
2022-10-06T13:17:55.116Z,4.73
2022-10-06T13:18:55.129Z,4.54
2022-10-06T13:19:55.217Z,4.81
2022-10-06T13:20:55.118Z,5.31
2022-10-06T13:21:55.137Z,4.21
2022-10-06T13:22:55.120Z,4.01
2022-10-06T13:23:55.113Z,4.37
2022-10-06T13:24:55.126Z,4.21
2022-10-06T13:25:55.182Z,3.84
2022-10-06T13:29:55.173Z,4.02
2022-10-06T13:30:55.296Z,4.23
2022-10-06T13:32:55.208Z,4.05
2022-10-06T13:34:55.238Z,4.39
2022-10-06T13:35:55.138Z,3.84
2022-10-06T13:36:55.163Z,4.11
2022-10-06T13:37:55.160Z,4.17
2022-10-06T13:39:55.247Z,4.19
2022-10-06T13:40:55.197Z,3.56
2022-10-06T13:41:55.176Z,3.96
2022-10-06T13:42:55.161Z,4.33
2022-10-06T13:43:55.180Z,4.04
2022-10-06T13:44:55.178Z,4.18
2022-10-06T13:45:55.244Z,3.77
2022-10-06T13:46:55.189Z,3.97
2022-10-06T13:48:55.201Z,3.84
2022-10-06T13:49:55.192Z,4.00
2022-10-06T13:50:55.224Z,4.18
2022-10-06T13:51:55.260Z,4.20
2022-10-06T13:52:55.212Z,3.83
2022-10-06T13:53:58.154Z,4.22
2022-10-06T13:58:55.307Z,4.39
2022-10-06T13:59:55.319Z,3.83
2022-10-06T14:00:55.231Z,3.96
2022-10-06T14:01:55.279Z,4.47
2022-10-06T14:02:55.354Z,4.06
2022-10-06T14:03:55.227Z,4.38
2022-10-06T14:04:55.261Z,4.41
2022-10-06T14:05:55.250Z,4.77
2022-10-06T14:06:55.368Z,4.71
2022-10-06T14:07:55.233Z,4.30
2022-10-06T14:08:55.235Z,6.55
2022-10-06T14:09:55.250Z,4.96
2022-10-06T14:11:55.336Z,4.11
2022-10-06T14:13:55.259Z,4.58
2022-10-06T14:14:55.351Z,4.65
2022-10-06T14:15:55.371Z,4.58
2022-10-06T14:16:55.275Z,4.46
2022-10-06T14:17:55.308Z,4.73
2022-10-06T14:19:55.324Z,4.53
2022-10-06T14:20:55.279Z,4.86
2022-10-06T14:22:55.277Z,4.37
2022-10-06T14:23:55.311Z,4.76
2022-10-06T14:25:55.288Z,4.83
2022-10-06T14:26:55.294Z,5.34
2022-10-06T14:27:55.285Z,5.45
2022-10-06T14:28:55.275Z,5.07
2022-10-06T14:29:55.442Z,4.46
2022-10-06T14:30:58.501Z,4.40
2022-10-06T14:31:55.306Z,5.09
2022-10-06T14:32:55.313Z,5.20
2022-10-06T14:33:55.298Z,4.46
2022-10-06T14:34:55.288Z,5.19
2022-10-06T14:35:55.405Z,4.98
2022-10-06T14:36:55.399Z,4.79
2022-10-06T14:38:55.315Z,4.28
2022-10-06T14:40:55.348Z,4.67
2022-10-06T14:41:55.380Z,4.39
2022-10-06T14:43:55.346Z,5.38
2022-10-06T14:44:55.353Z,4.87
2022-10-06T14:49:55.390Z,4.71
2022-10-06T14:50:55.389Z,4.18
2022-10-06T14:51:55.392Z,3.96
2022-10-06T14:52:55.360Z,4.13
2022-10-06T14:54:55.690Z,4.41
2022-10-06T14:55:55.709Z,4.14
2022-10-06T14:56:55.381Z,4.95
2022-10-06T14:57:55.387Z,5.11
2022-10-06T14:58:55.376Z,4.32
2022-10-06T14:59:55.415Z,4.35
2022-10-06T15:00:55.392Z,4.59
2022-10-06T15:01:55.427Z,3.98
2022-10-06T15:02:55.511Z,3.83
2022-10-06T15:04:55.384Z,4.83
2022-10-06T15:05:55.405Z,4.16
2022-10-06T15:08:55.436Z,4.83
2022-10-06T15:09:55.390Z,4.46
2022-10-06T15:11:55.401Z,4.11
2022-10-06T15:13:55.394Z,4.08
2022-10-06T15:14:55.419Z,3.40
2022-10-06T15:15:55.426Z,4.13
2022-10-06T15:16:55.424Z,4.12
2022-10-06T15:17:55.423Z,4.41
2022-10-06T15:18:55.437Z,4.66
2022-10-06T15:19:55.428Z,4.41
2022-10-06T15:20:55.468Z,3.98